Time;durP1;ratioP1;P1;durP2;ratioP2;P2;SDS_P1;SDS_P2;PMS_P1;PMS_P2;Temp;Humidity;BMP_temperature;BMP_pressure;BME280_temperature;BME280_humidity;BME280_pressure;Samples;Min_cycle;Max_cycle;Signal;HPM_P1;HPM_P2
2022/01/07 00:01:01;;;;;;;9.70;3.13;;;14.30;48.10;;;;;;5091128;27;20031;-63
2022/01/07 00:03:28;;;;;;;9.30;2.85;;;14.30;48.10;;;;;;5138448;27;20039;-63
2022/01/07 00:05:53;;;;;;;9.27;2.63;;;14.20;48.10;;;;;;5107643;27;20054;-64
2022/01/07 00:08:19;;;;;;;9.82;3.17;;;14.20;48.10;;;;;;5097331;28;20032;-63
2022/01/07 00:10:45;;;;;;;9.60;3.00;;;14.20;48.10;;;;;;5102986;28;20512;-63
2022/01/07 00:13:12;;;;;;;8.10;2.38;;;14.20;48.10;;;;;;5119132;27;20634;-63
2022/01/07 00:15:38;;;;;;;8.73;2.58;;;14.20;48.10;;;;;;5107102;27;20712;-63
2022/01/07 00:18:05;;;;;;;10.68;2.67;;;14.20;48.20;;;;;;5103189;27;20067;-63
2022/01/07 00:20:30;;;;;;;7.97;2.75;;;14.20;48.10;;;;;;5099295;27;20784;-63
2022/01/07 00:22:56;;;;;;;8.95;2.60;;;14.10;48.10;;;;;;5099187;27;20057;-64
2022/01/07 00:25:22;;;;;;;8.65;2.72;;;14.10;48.10;;;;;;5091047;27;20043;-63
2022/01/07 00:27:49;;;;;;;8.35;3.13;;;14.10;48.10;;;;;;5106391;27;20039;-63
2022/01/07 00:30:17;;;;;;;7.18;2.42;;;14.10;48.10;;;;;;5107616;27;20522;-64
2022/01/07 00:32:42;;;;;;;10.60;3.55;;;14.10;48.00;;;;;;5105260;27;20039;-63
2022/01/07 00:35:09;;;;;;;8.82;2.85;;;14.10;47.90;;;;;;5123872;27;20095;-63
2022/01/07 00:37:36;;;;;;;11.10;3.30;;;14.10;47.90;;;;;;5105260;27;20039;-63
2022/01/07 00:40:02;;;;;;;8.50;3.00;;;14.10;47.80;;;;;;5106549;27;20039;-64
2022/01/07 00:42:28;;;;;;;9.02;3.10;;;14.10;47.80;;;;;;5124902;27;20035;-64
2022/01/07 00:44:53;;;;;;;8.23;2.92;;;14.00;47.80;;;;;;5107791;27;20046;-64
2022/01/07 00:47:19;;;;;;;8.32;2.80;;;14.00;47.80;;;;;;5105906;27;20043;-64
2022/01/07 00:49:45;;;;;;;8.23;2.70;;;14.00;47.80;;;;;;5073638;27;20043;-64
2022/01/07 00:52:10;;;;;;;8.88;3.28;;;14.00;47.80;;;;;;5073216;28;20036;-63
2022/01/07 00:54:36;;;;;;;8.35;3.05;;;14.00;47.80;;;;;;5121262;27;20093;-64
2022/01/07 00:57:02;;;;;;;8.02;2.50;;;14.00;47.80;;;;;;5124474;27;20689;-63
2022/01/07 00:59:27;;;;;;;8.27;2.80;;;14.00;47.90;;;;;;5141771;27;20031;-63
2022/01/07 01:01:53;;;;;;;8.70;2.40;;;14.00;47.80;;;;;;5103741;27;20054;-64
2022/01/07 01:04:19;;;;;;;7.50;2.40;;;14.00;47.80;;;;;;5108243;27;20051;-63
2022/01/07 01:06:45;;;;;;;8.30;2.50;;;14.00;47.90;;;;;;5105395;27;20516;-64
2022/01/07 01:09:12;;;;;;;10.25;2.78;;;13.90;47.90;;;;;;5107112;27;20043;-63
2022/01/07 01:11:37;;;;;;;8.55;2.83;;;13.90;47.90;;;;;;5124907;27;20072;-63
2022/01/07 01:14:04;;;;;;;9.02;2.65;;;13.90;47.90;;;;;;5107157;27;20051;-64
2022/01/07 01:16:30;;;;;;;8.43;2.92;;;14.00;48.00;;;;;;5105525;27;20035;-63
2022/01/07 01:18:56;;;;;;;8.57;2.70;;;13.90;47.90;;;;;;5089685;27;20065;-63
2022/01/07 01:21:21;;;;;;;7.40;2.42;;;13.90;47.90;;;;;;5075468;27;20049;-63
2022/01/07 01:23:48;;;;;;;8.00;2.83;;;13.90;47.90;;;;;;5110566;27;20039;-63
2022/01/07 01:26:14;;;;;;;9.07;2.97;;;13.90;47.90;;;;;;5121062;27;20039;-63
2022/01/07 01:28:40;;;;;;;8.75;2.78;;;13.90;48.00;;;;;;5104012;27;20039;-64
2022/01/07 01:31:07;;;;;;;9.93;2.88;;;13.90;48.00;;;;;;5097602;28;20085;-63
2022/01/07 01:33:33;;;;;;;8.93;2.45;;;13.90;48.00;;;;;;5073305;28;20084;-63
2022/01/07 01:35:58;;;;;;;8.02;2.55;;;13.90;48.00;;;;;;5078827;27;20042;-63
2022/01/07 01:38:27;;;;;;;7.90;2.50;;;13.90;48.00;;;;;;5089472;27;20027;-63
2022/01/07 01:40:53;;;;;;;9.48;2.70;;;13.90;48.00;;;;;;5125500;27;20047;-63
2022/01/07 01:43:19;;;;;;;7.18;2.63;;;13.90;48.00;;;;;;5089400;27;20603;-63
2022/01/07 01:45:44;;;;;;;7.45;2.40;;;13.90;48.00;;;;;;5106414;28;20047;-63
2022/01/07 01:48:10;;;;;;;7.43;2.40;;;13.90;48.00;;;;;;5105342;28;20074;-63
2022/01/07 01:50:35;;;;;;;6.25;2.35;;;13.90;48.00;;;;;;5124750;28;20035;-63
2022/01/07 01:53:01;;;;;;;9.02;2.50;;;13.90;48.00;;;;;;5142489;27;20043;-64
2022/01/07 01:55:27;;;;;;;8.18;2.58;;;13.90;48.00;;;;;;5129481;27;20063;-63
2022/01/07 01:57:54;;;;;;;6.13;2.35;;;13.90;48.00;;;;;;5095084;27;20054;-64
2022/01/07 02:00:22;;;;;;;6.78;2.28;;;13.90;48.00;;;;;;5081005;27;20057;-63
2022/01/07 02:02:49;;;;;;;7.50;2.38;;;13.80;48.00;;;;;;5119979;27;20126;-63
2022/01/07 02:05:14;;;;;;;8.68;2.78;;;13.90;48.10;;;;;;5127784;27;20039;-63
2022/01/07 02:07:41;;;;;;;6.72;2.35;;;13.90;48.60;;;;;;5098280;27;20053;-63
2022/01/07 02:10:12;;;;;;;8.40;2.35;;;13.90;48.00;;;;;;5096698;27;20035;-63
2022/01/07 02:12:38;;;;;;;8.70;2.38;;;13.80;48.00;;;;;;5129108;27;20054;-63
2022/01/07 02:15:04;;;;;;;7.30;2.50;;;13.80;48.00;;;;;;5110394;27;20546;-64
2022/01/07 02:17:30;;;;;;;7.57;2.35;;;13.80;48.00;;;;;;5092601;27;20042;-63
2022/01/07 02:19:57;;;;;;;6.75;2.50;;;13.80;48.00;;;;;;5110343;27;20035;-63
2022/01/07 02:22:25;;;;;;;6.95;2.50;;;13.80;48.00;;;;;;5108905;27;20043;-63
2022/01/07 02:24:53;;;;;;;8.50;2.40;;;13.80;48.00;;;;;;5129047;27;20550;-63
2022/01/07 02:27:20;;;;;;;7.00;2.30;;;13.80;48.00;;;;;;5109206;27;20043;-63
2022/01/07 02:29:48;;;;;;;6.97;2.42;;;13.80;48.00;;;;;;5109860;27;20084;-63
2022/01/07 02:32:14;;;;;;;5.88;1.90;;;13.80;48.60;;;;;;5108949;27;20039;-63
2022/01/07 02:34:40;;;;;;;7.25;2.13;;;13.80;48.00;;;;;;5063178;27;20039;-63
2022/01/07 02:37:06;;;;;;;8.23;2.38;;;13.80;48.00;;;;;;5104561;27;20039;-63
2022/01/07 02:39:31;;;;;;;5.63;2.22;;;13.80;48.00;;;;;;5114109;27;20073;-64
2022/01/07 02:41:57;;;;;;;5.45;2.03;;;13.80;48.00;;;;;;5111273;27;20618;-63
2022/01/07 02:44:23;;;;;;;6.13;2.20;;;13.80;48.00;;;;;;5110115;27;20061;-63
2022/01/07 02:46:48;;;;;;;7.93;2.33;;;13.80;48.00;;;;;;5108254;27;20050;-63
2022/01/07 02:49:17;;;;;;;6.72;2.30;;;13.80;48.00;;;;;;5093225;27;20046;-63
2022/01/07 02:51:46;;;;;;;5.25;1.90;;;13.80;48.00;;;;;;5126248;27;20043;-62
2022/01/07 02:54:12;;;;;;;5.93;2.03;;;13.80;48.10;;;;;;5109892;27;20035;-63
2022/01/07 02:56:39;;;;;;;7.85;2.15;;;13.70;48.00;;;;;;5108472;27;20047;-63
2022/01/07 02:59:07;;;;;;;7.30;2.20;;;13.80;48.10;;;;;;5109669;27;20063;-63
2022/01/07 03:01:33;;;;;;;6.75;2.53;;;13.70;48.00;;;;;;5108854;27;20043;-63
2022/01/07 03:03:59;;;;;;;5.43;2.05;;;13.80;48.10;;;;;;5109460;27;20047;-63
2022/01/07 03:06:25;;;;;;;5.45;2.10;;;13.80;48.10;;;;;;5100292;27;20635;-63
2022/01/07 03:08:51;;;;;;;6.00;2.00;;;13.70;48.00;;;;;;5073497;27;20089;-62
2022/01/07 03:11:18;;;;;;;5.28;1.67;;;13.70;48.10;;;;;;5092099;28;20101;-63
2022/01/07 03:13:44;;;;;;;6.60;1.85;;;13.70;48.10;;;;;;5123621;27;20039;-63
2022/01/07 03:16:10;;;;;;;6.75;2.45;;;13.70;48.00;;;;;;5108161;27;20657;-63
2022/01/07 03:18:35;;;;;;;7.05;2.05;;;13.70;48.60;;;;;;5089776;27;20519;-62
2022/01/07 03:21:01;;;;;;;6.57;2.33;;;13.70;48.10;;;;;;5108479;27;20075;-63
2022/01/07 03:23:27;;;;;;;5.65;1.77;;;13.70;48.00;;;;;;5108250;27;20050;-63
2022/01/07 03:25:53;;;;;;;7.00;2.40;;;13.70;48.10;;;;;;5108803;27;20124;-64
2022/01/07 03:28:19;;;;;;;7.05;2.17;;;13.70;48.00;;;;;;5125123;27;20035;-63
2022/01/07 03:30:46;;;;;;;4.88;1.73;;;13.70;48.00;;;;;;5126974;27;20634;-63
2022/01/07 03:33:13;;;;;;;5.95;2.05;;;13.70;48.00;;;;;;5107789;27;20047;-65
2022/01/07 03:35:39;;;;;;;5.13;1.83;;;13.70;48.00;;;;;;5108789;27;20434;-63
2022/01/07 03:38:05;;;;;;;5.40;1.95;;;13.70;48.00;;;;;;5126262;27;20042;-63
2022/01/07 03:40:31;;;;;;;6.40;2.05;;;13.70;48.00;;;;;;5127592;27;20605;-63
2022/01/07 03:42:57;;;;;;;5.28;2.00;;;13.70;48.00;;;;;;5108172;27;20043;-63
2022/01/07 03:45:23;;;;;;;6.47;1.90;;;13.70;48.00;;;;;;5108436;27;20051;-63
2022/01/07 03:47:50;;;;;;;5.43;2.10;;;13.80;48.00;;;;;;5125708;27;20043;-63
2022/01/07 03:50:18;;;;;;;6.50;1.95;;;13.80;47.90;;;;;;5108196;27;20031;-63
2022/01/07 03:52:44;;;;;;;5.63;1.80;;;13.80;47.90;;;;;;5057718;27;20555;-63
2022/01/07 03:55:13;;;;;;;5.47;2.15;;;13.80;47.90;;;;;;5110646;27;20118;-63
2022/01/07 03:57:39;;;;;;;6.05;2.17;;;13.80;47.90;;;;;;5107551;27;20050;-63
2022/01/07 04:00:07;;;;;;;5.20;1.70;;;13.80;47.90;;;;;;5091045;27;20031;-63
2022/01/07 04:02:33;;;;;;;6.38;2.00;;;13.90;47.90;;;;;;5078448;27;20044;-63
2022/01/07 04:04:58;;;;;;;4.72;1.70;;;14.00;47.90;;;;;;5101024;27;20602;-63
2022/01/07 04:07:25;;;;;;;5.10;2.00;;;14.00;47.80;;;;;;5094203;27;20072;-63
2022/01/07 04:09:50;;;;;;;5.72;1.70;;;14.10;47.80;;;;;;5107819;27;20051;-63
2022/01/07 04:12:16;;;;;;;4.80;1.50;;;14.10;47.70;;;;;;5106381;27;20136;-63
2022/01/07 04:14:41;;;;;;;6.50;2.20;;;14.20;47.70;;;;;;5107554;27;20689;-63
2022/01/07 04:17:07;;;;;;;4.90;1.60;;;14.20;47.70;;;;;;5124599;27;20039;-63
2022/01/07 04:19:33;;;;;;;5.13;2.00;;;14.30;47.70;;;;;;5108166;27;20096;-63
2022/01/07 04:21:59;;;;;;;4.20;1.67;;;14.40;47.70;;;;;;5106238;27;20045;-63
2022/01/07 04:24:25;;;;;;;4.90;1.65;;;14.40;47.70;;;;;;5102672;27;20044;-63
2022/01/07 04:26:50;;;;;;;5.78;1.90;;;14.50;47.60;;;;;;5097489;27;20054;-63
2022/01/07 04:29:16;;;;;;;4.97;1.75;;;14.50;47.50;;;;;;5090728;27;20039;-63
2022/01/07 04:31:42;;;;;;;5.63;1.70;;;14.60;47.60;;;;;;5124565;27;20039;-63
2022/01/07 04:34:07;;;;;;;4.47;1.70;;;14.60;47.50;;;;;;5123007;27;20031;-63
2022/01/07 04:36:33;;;;;;;6.35;1.95;;;14.70;47.50;;;;;;5135114;27;20500;-63
2022/01/07 04:38:58;;;;;;;4.30;1.60;;;14.70;47.40;;;;;;5128960;27;20051;-63
2022/01/07 04:41:24;;;;;;;5.15;1.95;;;14.70;47.30;;;;;;5087307;28;20031;-62
2022/01/07 04:43:50;;;;;;;4.43;1.67;;;14.80;47.30;;;;;;5106749;27;20047;-63
2022/01/07 04:46:15;;;;;;;4.50;1.50;;;14.80;47.30;;;;;;5107172;27;20070;-63
2022/01/07 04:48:41;;;;;;;4.18;1.58;;;14.80;47.30;;;;;;5125183;27;20123;-63
2022/01/07 04:51:07;;;;;;;4.72;1.60;;;14.90;47.30;;;;;;5106901;27;20043;-63
2022/01/07 04:53:33;;;;;;;3.67;1.15;;;14.90;47.20;;;;;;5106013;27;20054;-63
2022/01/07 04:55:59;;;;;;;4.63;1.67;;;14.90;47.20;;;;;;5107514;27;20058;-63
2022/01/07 04:58:25;;;;;;;4.07;1.40;;;14.90;47.10;;;;;;5105307;27;20035;-63
2022/01/07 05:00:51;;;;;;;4.35;1.63;;;15.00;47.20;;;;;;5105271;27;20549;-63
2022/01/07 05:03:16;;;;;;;3.88;1.38;;;15.00;47.20;;;;;;5104019;27;20043;-63
2022/01/07 05:05:47;;;;;;;4.85;1.73;;;15.10;47.20;;;;;;5122942;27;20286;-63
2022/01/07 05:08:15;;;;;;;4.40;1.70;;;15.10;47.10;;;;;;5072171;28;20048;-63
2022/01/07 05:10:42;;;;;;;5.38;1.40;;;15.10;47.10;;;;;;5086726;28;20640;-63
2022/01/07 05:13:07;;;;;;;5.38;1.65;;;15.10;47.10;;;;;;5113515;27;20181;-62
2022/01/07 05:15:33;;;;;;;4.72;1.70;;;15.10;47.00;;;;;;5086133;28;20126;-62
2022/01/07 05:17:59;;;;;;;4.30;1.52;;;15.10;47.00;;;;;;5116459;27;20031;-63
2022/01/07 05:20:24;;;;;;;4.43;1.52;;;15.20;47.00;;;;;;5105915;27;20676;-63
2022/01/07 05:22:51;;;;;;;4.38;1.25;;;15.20;47.00;;;;;;5104778;27;20596;-63
2022/01/07 05:25:16;;;;;;;5.32;1.50;;;15.20;47.00;;;;;;5088993;27;20071;-63
2022/01/07 05:27:42;;;;;;;5.50;1.52;;;15.20;46.90;;;;;;5123381;27;20119;-63
2022/01/07 05:30:10;;;;;;;4.65;1.48;;;15.30;46.90;;;;;;5088586;27;20610;-63
2022/01/07 05:32:35;;;;;;;3.70;1.35;;;15.30;46.90;;;;;;5103691;27;20070;-63
2022/01/07 05:35:01;;;;;;;4.28;1.40;;;15.30;46.90;;;;;;5105731;27;20035;-63
2022/01/07 05:37:26;;;;;;;5.45;1.60;;;15.30;46.80;;;;;;5122935;27;20079;-63
2022/01/07 05:39:52;;;;;;;3.08;1.27;;;15.30;46.80;;;;;;5106209;27;20174;-61
2022/01/07 05:42:18;;;;;;;4.97;1.42;;;15.30;46.80;;;;;;5104341;27;20138;-63
2022/01/07 05:44:44;;;;;;;4.07;1.30;;;15.30;46.80;;;;;;5106015;27;20591;-63
2022/01/07 05:47:10;;;;;;;3.85;1.33;;;15.30;46.80;;;;;;5093737;27;20043;-63
2022/01/07 05:49:35;;;;;;;4.35;1.50;;;15.40;46.80;;;;;;5077006;28;20039;-63
2022/01/07 05:52:01;;;;;;;3.95;1.42;;;15.30;46.80;;;;;;5089388;28;20357;-63
2022/01/07 05:54:26;;;;;;;5.22;1.50;;;15.30;46.70;;;;;;5089659;28;20688;-63
2022/01/07 05:56:52;;;;;;;4.32;1.60;;;15.30;46.70;;;;;;5105107;28;20074;-63
2022/01/07 05:59:17;;;;;;;3.28;1.33;;;15.30;46.70;;;;;;5106751;28;20035;-63
2022/01/07 06:01:43;;;;;;;3.33;1.20;;;15.30;46.70;;;;;;5122539;28;20042;-63
2022/01/07 06:04:09;;;;;;;4.07;1.38;;;15.30;46.60;;;;;;5106935;28;20069;-63
2022/01/07 06:06:35;;;;;;;4.35;1.52;;;15.30;46.70;;;;;;5104407;28;20683;-63
2022/01/07 06:09:00;;;;;;;3.45;1.17;;;15.40;46.70;;;;;;5107134;28;20035;-67
2022/01/07 06:11:26;;;;;;;3.72;1.30;;;15.30;46.70;;;;;;5106602;28;20053;-67
2022/01/07 06:13:51;;;;;;;3.65;1.30;;;15.40;46.70;;;;;;5105869;28;20047;-67
2022/01/07 06:16:17;;;;;;;3.83;1.30;;;15.40;46.70;;;;;;5106957;28;20408;-67
2022/01/07 06:18:53;;;;;;;3.85;1.48;;;15.40;46.70;;;;;;5106842;28;20043;-67
2022/01/07 06:21:19;;;;;;;3.08;1.17;;;15.40;46.70;;;;;;5090245;28;20143;-67
2022/01/07 06:23:44;;;;;;;4.00;1.50;;;15.40;46.60;;;;;;5085647;28;20039;-67
2022/01/07 06:26:10;;;;;;;3.47;1.10;;;15.40;46.60;;;;;;5090871;28;20047;-67
2022/01/07 06:28:35;;;;;;;4.20;1.20;;;15.50;46.70;;;;;;5092601;28;20633;-67
2022/01/07 06:31:01;;;;;;;3.10;1.20;;;15.50;46.60;;;;;;5086067;28;20097;-67
2022/01/07 06:33:27;;;;;;;4.30;1.40;;;15.50;46.60;;;;;;5102104;28;20031;-67
2022/01/07 06:35:52;;;;;;;3.55;1.30;;;15.50;46.60;;;;;;5107055;28;20488;-67
2022/01/07 06:38:18;;;;;;;4.57;1.50;;;15.50;46.50;;;;;;5126026;27;20031;-67
2022/01/07 06:40:43;;;;;;;4.30;1.30;;;15.50;46.50;;;;;;5111017;27;20084;-67
2022/01/07 06:43:09;;;;;;;3.10;1.10;;;15.50;46.50;;;;;;5127937;27;20076;-67
2022/01/07 06:45:35;;;;;;;3.70;1.35;;;15.50;46.50;;;;;;5110767;27;20047;-67
2022/01/07 06:48:00;;;;;;;4.80;1.45;;;15.50;46.50;;;;;;5092776;27;20123;-67
2022/01/07 06:50:26;;;;;;;3.33;1.23;;;15.50;47.00;;;;;;5128806;27;20637;-67
2022/01/07 06:52:51;;;;;;;3.80;1.20;;;15.60;46.50;;;;;;5092982;27;20042;-67
2022/01/07 06:55:18;;;;;;;4.15;1.33;;;15.50;46.40;;;;;;5128985;27;20492;-67
2022/01/07 06:57:43;;;;;;;5.18;1.60;;;15.50;46.40;;;;;;5092820;27;20122;-67
2022/01/07 07:00:09;;;;;;;3.80;1.25;;;15.50;46.40;;;;;;5109256;27;20126;-67
2022/01/07 07:02:35;;;;;;;3.75;1.30;;;15.50;46.40;;;;;;5108922;27;20091;-67
2022/01/07 07:05:01;;;;;;;4.93;1.40;;;15.60;46.50;;;;;;5110496;27;20650;-67
2022/01/07 07:07:26;;;;;;;3.50;1.17;;;15.60;47.00;;;;;;5108993;27;20030;-67
2022/01/07 07:09:52;;;;;;;3.25;1.13;;;15.60;46.40;;;;;;5093840;27;20035;-67
2022/01/07 07:12:17;;;;;;;4.25;1.40;;;15.60;46.50;;;;;;5127885;27;20055;-67
2022/01/07 07:14:43;;;;;;;3.38;1.08;;;15.60;46.30;;;;;;5128626;27;20086;-67
2022/01/07 07:17:10;;;;;;;2.78;1.13;;;15.60;46.30;;;;;;5127407;27;20035;-67
2022/01/07 07:19:36;;;;;;;3.60;1.40;;;15.60;46.40;;;;;;5098942;27;20046;-67
2022/01/07 07:22:02;;;;;;;3.47;1.30;;;15.60;46.30;;;;;;5102656;27;20035;-67
2022/01/07 07:24:27;;;;;;;2.78;0.98;;;15.60;46.30;;;;;;5108099;27;20043;-67
2022/01/07 07:26:53;;;;;;;3.67;1.25;;;15.60;46.30;;;;;;5076857;27;20052;-67
2022/01/07 07:29:19;;;;;;;4.28;1.30;;;15.60;46.30;;;;;;5087304;27;20054;-67
2022/01/07 07:31:50;;;;;;;3.50;1.20;;;15.60;46.30;;;;;;5107743;27;20051;-67
2022/01/07 07:34:32;;;;;;;2.83;1.05;;;15.60;46.30;;;;;;5109509;27;20051;-67
2022/01/07 07:36:58;;;;;;;3.35;1.20;;;15.70;46.30;;;;;;5107346;27;20078;-67
2022/01/07 07:39:24;;;;;;;3.13;1.13;;;15.60;46.30;;;;;;5109246;27;20078;-67
2022/01/07 07:41:49;;;;;;;3.05;1.35;;;15.70;46.40;;;;;;5125452;27;20745;-67
2022/01/07 07:44:15;;;;;;;3.33;1.27;;;15.70;46.40;;;;;;5109437;27;20152;-67
2022/01/07 07:46:41;;;;;;;3.45;1.20;;;15.70;46.30;;;;;;5091071;27;20100;-67
2022/01/07 07:49:08;;;;;;;3.50;1.20;;;15.60;46.20;;;;;;5108766;27;20051;-67
2022/01/07 07:51:34;;;;;;;4.18;1.20;;;15.70;46.30;;;;;;5106933;27;20069;-67
2022/01/07 07:54:00;;;;;;;3.50;1.25;;;15.70;46.30;;;;;;5106979;28;20081;-67
2022/01/07 07:56:26;;;;;;;4.05;1.10;;;15.70;46.30;;;;;;5088512;27;20551;-67
2022/01/07 07:58:53;;;;;;;2.75;1.02;;;15.70;46.30;;;;;;5108342;27;20031;-67
2022/01/07 08:01:18;;;;;;;3.33;1.20;;;15.70;46.30;;;;;;5091067;27;20535;-67
2022/01/07 08:03:45;;;;;;;3.33;1.20;;;15.70;46.30;;;;;;5091294;27;20043;-68
2022/01/07 08:06:11;;;;;;;3.35;1.10;;;15.70;46.30;;;;;;5107043;27;20051;-67
2022/01/07 08:08:37;;;;;;;3.63;1.10;;;15.70;46.30;;;;;;5077511;27;20039;-67
2022/01/07 08:11:06;;;;;;;4.75;1.45;;;15.70;46.30;;;;;;5102224;27;20082;-68
2022/01/07 08:15:58;;;;;;;4.65;1.45;;;15.70;46.20;;;;;;5108293;27;20050;-68
2022/01/07 08:16:23;;;;;;;2.88;1.20;;;15.70;46.30;;;;;;5105805;27;20039;-68
2022/01/07 08:18:53;;;;;;;3.50;1.30;;;15.70;46.30;;;;;;5110595;27;20481;-68
2022/01/07 08:21:20;;;;;;;3.38;1.13;;;15.70;46.30;;;;;;5085492;28;20056;-68
2022/01/07 08:23:46;;;;;;;4.38;1.23;;;15.70;46.30;;;;;;5105892;27;20047;-68
2022/01/07 08:26:13;;;;;;;4.05;1.23;;;15.80;46.30;;;;;;5107440;27;20054;-68
2022/01/07 08:28:45;;;;;;;3.22;1.10;;;15.70;46.20;;;;;;5106991;27;20691;-68
2022/01/07 08:36:25;;;;;;;2.80;1.02;;;15.80;46.30;;;;;;5107920;27;20043;-68
2022/01/07 08:38:52;;;;;;;3.30;1.17;;;15.80;46.30;;;;;;5094873;27;20034;-67
2022/01/07 08:41:19;;;;;;;4.43;1.20;;;15.80;46.30;;;;;;5107874;27;20055;-68
2022/01/07 08:43:45;;;;;;;2.95;1.08;;;15.80;46.20;;;;;;5107822;27;20039;-68
2022/01/07 08:46:10;;;;;;;3.38;1.20;;;15.80;46.20;;;;;;5094783;27;20599;-68
2022/01/07 08:48:37;;;;;;;3.80;1.35;;;15.80;46.20;;;;;;5079405;27;20591;-68
2022/01/07 08:51:05;;;;;;;3.63;1.20;;;15.80;46.20;;;;;;5088076;28;20104;-68
2022/01/07 08:53:30;;;;;;;4.03;1.30;;;15.90;46.30;;;;;;5106562;27;20043;-68
2022/01/07 08:55:56;;;;;;;3.15;1.13;;;15.80;46.20;;;;;;5091378;28;20046;-68
2022/01/07 08:58:22;;;;;;;3.55;1.40;;;15.80;46.20;;;;;;5124467;27;20118;-68
2022/01/07 09:00:49;;;;;;;2.20;0.95;;;15.90;46.20;;;;;;5093776;27;20675;-68
2022/01/07 09:03:14;;;;;;;3.28;1.38;;;15.90;46.20;;;;;;5119200;27;20039;-68
2022/01/07 09:05:40;;;;;;;4.78;1.30;;;15.90;46.10;;;;;;5088809;28;20047;-68
2022/01/07 09:08:12;;;;;;;5.30;1.30;;;15.90;46.30;;;;;;5100646;27;20087;-68
2022/01/07 09:10:38;;;;;;;3.88;1.10;;;15.90;46.30;;;;;;5107622;27;20511;-68
2022/01/07 09:13:04;;;;;;;3.47;1.23;;;15.80;46.30;;;;;;5106998;27;20083;-68
2022/01/07 09:15:30;;;;;;;2.75;1.10;;;15.80;46.40;;;;;;5107289;27;20067;-70
2022/01/07 09:17:55;;;;;;;4.18;1.30;;;15.80;46.40;;;;;;5084206;27;20584;-69
2022/01/07 09:20:21;;;;;;;6.22;1.17;;;15.80;47.20;;;;;;5099011;27;20082;-69
2022/01/07 09:22:47;;;;;;;4.15;1.45;;;15.80;47.30;;;;;;5105306;27;20087;-69
2022/01/07 09:25:13;;;;;;;4.97;1.60;;;15.80;47.30;;;;;;5107043;27;20126;-69
2022/01/07 09:27:40;;;;;;;5.57;1.50;;;15.80;47.40;;;;;;5124875;27;20122;-69
2022/01/07 09:30:07;;;;;;;4.32;1.45;;;15.80;47.90;;;;;;5106872;27;20054;-68
2022/01/07 09:32:33;;;;;;;5.15;1.40;;;15.80;47.40;;;;;;5105034;27;20027;-69
2022/01/07 09:34:58;;;;;;;5.55;1.40;;;15.80;47.30;;;;;;5106395;27;20187;-68
2022/01/07 09:37:24;;;;;;;6.28;1.50;;;15.70;47.20;;;;;;5120941;27;20060;-68
2022/01/07 09:39:49;;;;;;;3.10;1.23;;;15.70;47.20;;;;;;5105240;27;20373;-69
2022/01/07 09:42:15;;;;;;;4.68;1.35;;;15.70;47.20;;;;;;5105887;28;20039;-69
2022/01/07 09:44:43;;;;;;;5.82;1.50;;;15.70;47.20;;;;;;5125426;27;20043;-69
2022/01/07 09:47:13;;;;;;;4.70;1.75;;;15.70;47.10;;;;;;5105543;28;20121;-69
2022/01/07 09:49:40;;;;;;;3.83;1.58;;;15.70;47.20;;;;;;5124641;28;20400;-69
2022/01/07 09:52:06;;;;;;;4.97;1.65;;;15.70;47.10;;;;;;5122728;28;20043;-69
2022/01/07 09:54:38;;;;;;;5.47;1.50;;;15.70;47.10;;;;;;5106509;28;20118;-69
2022/01/07 09:57:06;;;;;;;6.05;1.67;;;15.80;47.10;;;;;;5105978;28;20625;-69
2022/01/07 09:59:35;;;;;;;3.90;1.38;;;15.80;47.10;;;;;;5106658;28;20039;-69
2022/01/07 10:02:06;;;;;;;3.85;1.60;;;15.80;47.10;;;;;;5104469;28;20043;-69
2022/01/07 10:04:33;;;;;;;6.93;1.75;;;15.90;47.10;;;;;;5106755;28;20043;-69
2022/01/07 10:07:19;;;;;;;3.92;1.23;;;15.90;47.10;;;;;;5088810;28;20122;-69
2022/01/07 10:10:18;;;;;;;4.10;1.38;;;15.90;47.10;;;;;;5106965;28;20043;-68
2022/01/07 10:13:04;;;;;;;4.32;1.40;;;15.90;47.10;;;;;;5103192;28;20046;-68
2022/01/07 10:15:35;;;;;;;4.75;1.55;;;15.90;47.20;;;;;;5137493;27;20105;-69
2022/01/07 10:18:12;;;;;;;4.68;1.27;;;15.90;47.20;;;;;;5126323;27;20031;-68
2022/01/07 10:20:41;;;;;;;4.88;1.50;;;15.90;47.10;;;;;;5100820;28;20469;-68
2022/01/07 10:23:15;;;;;;;5.63;1.77;;;15.90;47.10;;;;;;5129030;27;20069;-68
2022/01/07 10:25:47;;;;;;;3.33;1.17;;;15.90;47.10;;;;;;5101648;27;20082;-69
2022/01/07 10:28:19;;;;;;;3.67;1.38;;;15.90;47.00;;;;;;5115763;27;20036;-69
2022/01/07 10:30:54;;;;;;;6.32;1.27;;;15.90;47.10;;;;;;5121999;27;20040;-71
2022/01/07 10:33:26;;;;;;;4.32;1.50;;;15.90;47.90;;;;;;5082524;27;20042;-69
2022/01/07 10:35:54;;;;;;;5.45;1.40;;;15.90;48.00;;;;;;5131331;27;20043;-69
2022/01/07 10:38:27;;;;;;;5.63;1.60;;;15.80;48.00;;;;;;5090562;28;20508;-69
2022/01/07 10:40:56;;;;;;;4.63;1.58;;;15.90;48.00;;;;;;5061444;27;20035;-69
2022/01/07 10:43:27;;;;;;;4.85;1.77;;;15.80;47.90;;;;;;5075451;27;20043;-69
2022/01/07 10:45:56;;;;;;;4.00;1.40;;;15.90;47.90;;;;;;5132874;27;20051;-69
2022/01/07 10:48:35;;;;;;;4.20;1.38;;;15.80;47.80;;;;;;5101493;27;20918;-74
2022/01/07 10:51:12;;;;;;;8.05;1.60;;;15.80;47.90;;;;;;5069819;27;20716;-75
2022/01/07 10:53:38;;;;;;;8.20;1.80;;;15.80;48.10;;;;;;5105445;27;20034;-75
2022/01/07 10:56:15;;;;;;;6.60;1.73;;;15.80;48.30;;;;;;5096256;27;20074;-75
2022/01/07 10:58:46;;;;;;;5.25;1.90;;;15.80;48.40;;;;;;5106474;27;20054;-75
2022/01/07 11:01:21;;;;;;;9.23;1.92;;;15.80;48.80;;;;;;5065178;27;21094;-75
2022/01/07 11:03:56;;;;;;;7.40;1.90;;;15.70;48.90;;;;;;5093851;27;20039;-75
2022/01/07 11:06:24;;;;;;;12.75;2.35;;;15.70;49.10;;;;;;5105596;27;20047;-70
2022/01/07 11:08:51;;;;;;;5.97;1.77;;;15.70;49.20;;;;;;5105292;27;20034;-69
2022/01/07 11:11:21;;;;;;;9.55;1.80;;;15.70;49.30;;;;;;5111939;27;20695;-70
2022/01/07 11:13:47;;;;;;;13.15;2.53;;;15.80;49.70;;;;;;5088727;27;20043;-71
2022/01/07 11:16:13;;;;;;;8.30;2.28;;;15.90;49.80;;;;;;5093869;27;20035;-73
2022/01/07 11:18:41;;;;;;;12.88;2.08;;;15.90;49.50;;;;;;5103318;27;20776;-72
2022/01/07 11:21:08;;;;;;;11.50;2.35;;;15.90;49.70;;;;;;5101525;27;20039;-71
2022/01/07 11:23:37;;;;;;;6.90;1.60;;;15.90;49.70;;;;;;5101752;27;20051;-71
2022/01/07 11:26:08;;;;;;;13.10;2.83;;;16.00;49.70;;;;;;5088364;27;20099;-76
2022/01/07 11:28:35;;;;;;;6.15;1.70;;;16.00;49.70;;;;;;5101792;27;20050;-74
2022/01/07 11:31:05;;;;;;;8.20;1.90;;;16.00;49.70;;;;;;5100026;27;20589;-72
2022/01/07 11:33:31;;;;;;;7.47;1.80;;;16.10;49.90;;;;;;5104176;27;20650;-72
2022/01/07 11:35:57;;;;;;;7.93;1.92;;;16.10;49.60;;;;;;5104408;27;20051;-73
2022/01/07 11:38:40;;;;;;;5.93;1.85;;;16.10;49.30;;;;;;5139402;27;20778;-72
2022/01/07 11:41:12;;;;;;;11.63;2.33;;;16.10;49.80;;;;;;5084415;27;20035;-73
2022/01/07 11:43:41;;;;;;;9.85;2.25;;;16.10;49.40;;;;;;5101715;27;20567;-73
2022/01/07 11:46:28;;;;;;;11.77;1.85;;;16.10;49.50;;;;;;5100220;27;20054;-74
2022/01/07 11:48:55;;;;;;;6.70;1.98;;;16.10;49.70;;;;;;5122185;27;20043;-71
2022/01/07 11:51:21;;;;;;;7.47;2.13;;;16.10;49.60;;;;;;5103968;28;20618;-74
2022/01/07 11:53:50;;;;;;;11.30;1.73;;;16.10;49.50;;;;;;5122185;27;20070;-73
2022/01/07 11:56:15;;;;;;;12.48;2.15;;;16.10;49.30;;;;;;5088905;28;20035;-73
2022/01/07 11:58:51;;;;;;;8.40;1.60;;;16.10;49.40;;;;;;5093468;28;20028;-74
2022/01/07 12:01:24;;;;;;;11.88;1.60;;;16.10;49.40;;;;;;5123157;27;20118;-74
2022/01/07 12:03:53;;;;;;;11.70;1.95;;;16.10;49.50;;;;;;5107571;27;20041;-72
2022/01/07 12:06:24;;;;;;;9.77;1.80;;;16.00;49.50;;;;;;5107488;27;20057;-74
2022/01/07 12:09:06;;;;;;;9.70;2.35;;;16.00;49.70;;;;;;5094504;28;20051;-77
2022/01/07 12:11:55;;;;;;;7.63;1.63;;;15.90;49.50;;;;;;5092825;27;20056;-72
2022/01/07 12:14:23;;;;;;;6.97;1.90;;;15.90;49.80;;;;;;5108570;27;20066;-70
2022/01/07 12:16:54;;;;;;;11.40;2.35;;;15.90;50.00;;;;;;5095875;27;21072;-71
2022/01/07 12:19:21;;;;;;;12.18;2.80;;;15.90;50.10;;;;;;5072665;27;20051;-71
2022/01/07 12:21:49;;;;;;;11.38;2.80;;;15.90;49.60;;;;;;5081037;27;20042;-70
2022/01/07 12:24:26;;;;;;;7.85;2.70;;;15.90;49.20;;;;;;5108881;27;20043;-71
2022/01/07 12:27:04;;;;;;;6.50;2.20;;;15.90;49.00;;;;;;5108832;27;20047;-70
2022/01/07 12:29:31;;;;;;;14.13;2.72;;;15.80;48.80;;;;;;5109670;27;20039;-71
2022/01/07 12:31:57;;;;;;;9.25;2.40;;;15.80;49.00;;;;;;5108057;27;20515;-70
2022/01/07 12:34:35;;;;;;;9.02;2.25;;;15.80;48.90;;;;;;5109234;27;20051;-70
2022/01/07 12:37:06;;;;;;;8.05;1.98;;;15.80;48.90;;;;;;5107327;27;20558;-70
2022/01/07 12:39:35;;;;;;;6.13;2.10;;;15.70;49.50;;;;;;5109047;27;20385;-70
2022/01/07 12:42:01;;;;;;;8.45;2.50;;;15.70;49.00;;;;;;5090313;27;20681;-70
2022/01/07 12:44:43;;;;;;;5.75;1.75;;;15.70;49.00;;;;;;5105393;27;20035;-70
2022/01/07 12:47:12;;;;;;;9.07;2.03;;;15.60;48.90;;;;;;5096874;27;20047;-70
2022/01/07 12:49:47;;;;;;;9.63;1.95;;;15.60;48.80;;;;;;5108057;27;20122;-70
2022/01/07 12:52:26;;;;;;;4.88;1.60;;;15.60;48.90;;;;;;5107972;27;20437;-70